createdAt,value
2023-03-06T00:01:04.029Z,57.71
2023-03-06T00:03:33.843Z,57.87
2023-03-06T00:06:03.057Z,57.76
2023-03-06T00:08:31.936Z,57.27
2023-03-06T00:11:01.000Z,57.14
2023-03-06T00:13:31.391Z,57.02
2023-03-06T00:16:03.738Z,57.26
2023-03-06T00:18:33.030Z,57.35
2023-03-06T00:21:01.841Z,57.33
2023-03-06T00:23:30.969Z,57.08
2023-03-06T00:25:59.796Z,57.47
2023-03-06T00:28:31.188Z,57.58
2023-03-06T00:31:00.146Z,57.57
2023-03-06T00:33:29.088Z,57.83
2023-03-06T00:35:57.849Z,57.33
2023-03-06T00:38:28.818Z,57.42
2023-03-06T00:40:58.198Z,57.60
2023-03-06T00:43:27.010Z,57.82
2023-03-06T00:45:55.897Z,57.63
2023-03-06T00:48:24.752Z,58.02
2023-03-06T00:50:54.147Z,58.05
2023-03-06T00:53:23.079Z,57.63
2023-03-06T00:55:52.616Z,57.90
2023-03-06T00:58:21.605Z,58.02
2023-03-06T01:00:50.849Z,58.38
2023-03-06T01:03:19.592Z,58.24
2023-03-06T01:05:48.613Z,58.54
2023-03-06T01:08:17.489Z,59.08
2023-03-06T01:10:46.306Z,59.52
2023-03-06T01:13:15.306Z,60.56
2023-03-06T01:15:45.349Z,61.29
2023-03-06T01:18:14.157Z,62.82
2023-03-06T01:20:43.366Z,63.72
2023-03-06T01:23:12.216Z,64.32
2023-03-06T01:25:41.034Z,64.70
2023-03-06T01:28:09.893Z,65.14
2023-03-06T01:30:38.862Z,65.51
2023-03-06T01:33:07.749Z,65.62
2023-03-06T01:35:39.659Z,65.77
2023-03-06T01:38:08.949Z,65.59
2023-03-06T01:40:39.305Z,65.68
2023-03-06T01:43:28.264Z,66.24
2023-03-06T01:46:27.107Z,65.56
2023-03-06T01:49:00.288Z,65.55
2023-03-06T01:51:59.972Z,66.03
2023-03-06T01:54:31.263Z,66.37
2023-03-06T01:57:07.398Z,66.35
2023-03-06T01:59:38.796Z,66.26
2023-03-06T02:02:11.049Z,66.42
2023-03-06T02:04:42.597Z,66.85
2023-03-06T02:07:12.182Z,66.68
2023-03-06T02:09:41.073Z,66.66
2023-03-06T02:12:16.659Z,67.14
2023-03-06T02:14:46.616Z,67.22
2023-03-06T02:17:19.102Z,64.77
2023-03-06T02:20:20.534Z,64.36
2023-03-06T02:23:41.504Z,65.55
2023-03-06T02:26:12.046Z,65.68
2023-03-06T02:28:40.911Z,65.76
2023-03-06T02:31:21.322Z,65.29
2023-03-06T02:34:19.625Z,65.10
2023-03-06T02:36:54.221Z,64.23
2023-03-06T02:39:27.086Z,64.29
2023-03-06T02:41:56.066Z,65.32
2023-03-06T02:44:27.338Z,66.03
2023-03-06T02:46:56.129Z,66.20
2023-03-06T02:49:26.524Z,67.00
2023-03-06T02:51:55.550Z,67.59
2023-03-06T02:54:24.230Z,68.13
2023-03-06T02:56:53.009Z,68.48
2023-03-06T02:59:21.747Z,68.25
2023-03-06T03:01:51.088Z,68.68
2023-03-06T03:04:20.010Z,69.53
2023-03-06T03:06:49.386Z,67.97
2023-03-06T03:09:20.026Z,67.48
2023-03-06T03:11:48.904Z,68.54
2023-03-06T03:14:18.038Z,69.54
2023-03-06T03:16:47.553Z,69.89
2023-03-06T03:19:16.327Z,70.10
2023-03-06T03:21:45.326Z,70.45
2023-03-06T03:24:14.360Z,69.31
2023-03-06T03:26:44.051Z,69.01
2023-03-06T03:29:15.897Z,69.72
2023-03-06T03:31:44.704Z,69.06
2023-03-06T03:34:13.593Z,68.36
2023-03-06T03:36:42.633Z,69.47
2023-03-06T03:39:11.691Z,70.56
2023-03-06T03:41:40.918Z,69.70
2023-03-06T03:44:10.888Z,69.54
2023-03-06T03:46:39.796Z,69.52
2023-03-06T03:49:12.465Z,69.69
2023-03-06T03:54:45.038Z,68.88
2023-03-06T03:57:13.931Z,68.85
2023-03-06T03:59:45.417Z,68.17
2023-03-06T04:02:24.017Z,68.39
2023-03-06T04:04:59.123Z,70.50
2023-03-06T04:07:28.558Z,71.13
2023-03-06T04:09:57.933Z,71.42
2023-03-06T04:12:28.105Z,71.47
2023-03-06T04:14:58.378Z,71.01
2023-03-06T04:17:27.835Z,70.45
2023-03-06T04:19:57.038Z,70.44
2023-03-06T04:22:26.625Z,70.61
2023-03-06T04:24:55.931Z,69.86
2023-03-06T04:27:25.112Z,70.92
2023-03-06T04:29:56.560Z,71.26
2023-03-06T04:32:25.632Z,71.44
2023-03-06T04:34:54.510Z,71.63
2023-03-06T04:37:27.969Z,71.92
2023-03-06T04:39:57.838Z,72.06
2023-03-06T04:42:26.640Z,72.19
2023-03-06T04:44:55.572Z,72.64
2023-03-06T04:47:24.345Z,72.45
2023-03-06T04:49:53.109Z,72.71
2023-03-06T04:52:21.949Z,72.68
2023-03-06T04:54:50.727Z,73.58
2023-03-06T04:57:19.631Z,74.37
2023-03-06T04:59:49.843Z,74.66
2023-03-06T05:02:18.923Z,73.98
2023-03-06T05:04:47.846Z,72.86
2023-03-06T05:07:16.710Z,72.39
2023-03-06T05:09:45.516Z,72.69
2023-03-06T05:12:14.352Z,72.82
2023-03-06T05:14:46.233Z,72.99
2023-03-06T05:17:15.893Z,73.20
2023-03-06T05:19:44.814Z,73.29
2023-03-06T05:22:13.623Z,73.30
2023-03-06T05:24:42.555Z,72.61
2023-03-06T05:27:11.297Z,72.20
2023-03-06T05:29:40.218Z,72.19
2023-03-06T05:32:09.357Z,72.44
2023-03-06T05:34:40.391Z,72.06
2023-03-06T05:37:09.689Z,72.23
2023-03-06T05:39:38.580Z,73.90
2023-03-06T05:42:07.790Z,74.83
2023-03-06T05:44:37.180Z,74.67
2023-03-06T05:47:06.202Z,74.23
2023-03-06T05:49:36.323Z,74.38
2023-03-06T05:52:06.836Z,72.58
2023-03-06T05:54:37.398Z,71.85
2023-03-06T05:57:06.493Z,71.18
2023-03-06T05:59:36.291Z,71.04
2023-03-06T06:02:05.845Z,71.20
2023-03-06T06:04:35.347Z,71.19
2023-03-06T06:07:06.243Z,71.82
2023-03-06T06:09:35.053Z,70.98
2023-03-06T06:12:04.439Z,71.19
2023-03-06T06:14:36.332Z,71.72
2023-03-06T06:17:05.651Z,72.13
2023-03-06T06:19:34.430Z,71.75
2023-03-06T06:22:04.083Z,71.34
2023-03-06T06:24:33.243Z,71.52
2023-03-06T06:27:03.835Z,71.42
2023-03-06T06:29:33.838Z,71.30
2023-03-06T06:32:02.912Z,71.54
2023-03-06T06:34:32.138Z,71.69
2023-03-06T06:37:00.931Z,71.71
2023-03-06T06:39:29.898Z,71.51
2023-03-06T06:42:15.439Z,71.61
2023-03-06T06:44:47.812Z,71.89
2023-03-06T06:47:25.640Z,72.06
2023-03-06T06:49:56.465Z,71.74
2023-03-06T06:52:25.488Z,71.02
2023-03-06T06:54:54.681Z,70.90
2023-03-06T06:57:23.403Z,71.06
2023-03-06T06:59:53.908Z,70.92
2023-03-06T07:02:23.576Z,70.04
2023-03-06T07:05:03.817Z,68.54
2023-03-06T07:07:36.672Z,67.89
2023-03-06T07:10:11.771Z,66.25
2023-03-06T07:12:40.745Z,65.40
2023-03-06T07:15:14.073Z,65.16
2023-03-06T07:17:42.975Z,65.21
2023-03-06T07:20:12.861Z,64.99
2023-03-06T07:22:50.931Z,64.76
2023-03-06T07:25:21.362Z,64.14
2023-03-06T07:27:55.083Z,63.83
2023-03-06T07:30:24.834Z,62.72
2023-03-06T07:32:56.544Z,61.50
2023-03-06T07:35:26.307Z,61.29
2023-03-06T07:37:55.486Z,61.67
2023-03-06T07:40:24.893Z,61.29
2023-03-06T07:43:06.109Z,60.42
2023-03-06T07:45:44.361Z,60.64
2023-03-06T07:48:15.063Z,59.45
2023-03-06T07:50:43.941Z,59.45
2023-03-06T07:53:12.675Z,58.39
2023-03-06T07:55:41.843Z,58.42
2023-03-06T07:58:11.865Z,57.76
2023-03-06T08:00:41.000Z,56.79
2023-03-06T08:03:12.710Z,56.39
2023-03-06T08:05:41.704Z,57.19
2023-03-06T08:08:10.760Z,55.86
2023-03-06T08:10:39.594Z,53.36
2023-03-06T08:13:08.394Z,52.31
2023-03-06T08:15:37.248Z,52.39
2023-03-06T08:18:06.087Z,52.30
2023-03-06T08:20:35.044Z,52.45
2023-03-06T08:23:04.020Z,53.61
2023-03-06T08:25:33.029Z,51.34
2023-03-06T08:28:02.131Z,50.92
2023-03-06T08:30:31.174Z,49.25
2023-03-06T08:33:01.615Z,49.40
2023-03-06T08:35:30.708Z,45.08
2023-03-06T08:37:59.723Z,44.33
2023-03-06T08:40:30.606Z,43.28
2023-03-06T08:42:59.522Z,43.54
2023-03-06T08:45:29.419Z,44.68
2023-03-06T08:47:59.023Z,43.48
2023-03-06T08:50:27.995Z,44.22
2023-03-06T08:52:56.936Z,44.84
2023-03-06T08:55:26.167Z,44.32
2023-03-06T08:57:55.059Z,43.93
2023-03-06T09:00:24.180Z,43.94
2023-03-06T09:02:53.188Z,44.00
2023-03-06T09:05:22.518Z,43.66
2023-03-06T09:07:51.803Z,43.25
2023-03-06T09:10:24.420Z,42.11
2023-03-06T09:12:55.358Z,40.95
2023-03-06T09:15:25.102Z,42.24
2023-03-06T09:17:54.636Z,41.33
2023-03-06T09:20:23.614Z,41.69
2023-03-06T09:22:52.633Z,41.26
2023-03-06T09:25:23.594Z,41.26
2023-03-06T09:28:08.612Z,40.85
2023-03-06T09:30:41.623Z,40.62
2023-03-06T09:33:10.704Z,41.07
2023-03-06T09:35:49.456Z,40.11
2023-03-06T09:38:21.110Z,39.86
2023-03-06T09:41:02.341Z,39.89
2023-03-06T09:43:48.481Z,40.45
2023-03-06T09:46:38.141Z,39.87
2023-03-06T09:49:35.566Z,39.26
2023-03-06T09:52:36.764Z,38.93
2023-03-06T09:55:33.464Z,38.93
2023-03-06T09:58:20.955Z,38.54
2023-03-06T10:01:36.879Z,38.00
2023-03-06T10:04:41.914Z,37.40
2023-03-06T10:07:33.692Z,37.58
2023-03-06T10:10:07.708Z,37.89
2023-03-06T10:12:45.092Z,37.58
2023-03-06T10:15:32.626Z,37.44
2023-03-06T10:18:05.862Z,38.19
2023-03-06T10:20:45.242Z,37.83
2023-03-06T10:23:53.780Z,37.38
2023-03-06T10:26:32.943Z,37.82
2023-03-06T10:29:14.197Z,37.25
2023-03-06T10:31:54.342Z,37.67
2023-03-06T10:34:31.072Z,36.72
2023-03-06T10:37:09.347Z,37.46
2023-03-06T10:39:40.056Z,34.46
2023-03-06T10:42:09.697Z,34.45
2023-03-06T10:44:39.137Z,34.69
2023-03-06T10:47:31.712Z,35.82
2023-03-06T10:50:03.895Z,36.34
2023-03-06T10:52:35.590Z,34.85
2023-03-06T10:55:27.919Z,34.17
2023-03-06T10:57:57.539Z,34.10
2023-03-06T11:00:33.886Z,34.80
2023-03-06T11:03:27.508Z,34.82
2023-03-06T11:06:01.155Z,33.58
2023-03-06T11:08:30.296Z,33.66
2023-03-06T11:11:09.577Z,34.50
2023-03-06T11:13:41.217Z,35.49
2023-03-06T11:16:26.966Z,35.79
2023-03-06T11:19:00.837Z,35.99
2023-03-06T11:21:36.024Z,36.55
2023-03-06T11:24:15.999Z,36.62
2023-03-06T11:27:13.727Z,37.06
2023-03-06T11:29:49.813Z,37.44
2023-03-06T11:32:36.781Z,37.19
2023-03-06T11:35:25.372Z,37.44
2023-03-06T11:38:07.252Z,37.27
2023-03-06T11:41:02.262Z,37.46
2023-03-06T11:44:13.344Z,37.93
2023-03-06T11:46:50.383Z,37.34
2023-03-06T11:49:28.511Z,37.28
2023-03-06T11:52:04.934Z,36.93
2023-03-06T11:54:33.941Z,38.00
2023-03-06T11:57:22.333Z,38.26
2023-03-06T12:00:20.273Z,38.73
2023-03-06T12:03:16.746Z,38.67
2023-03-06T12:06:04.372Z,38.00
2023-03-06T12:08:54.463Z,37.96
2023-03-06T12:12:09.472Z,38.19
2023-03-06T12:15:11.032Z,37.59
2023-03-06T12:18:14.300Z,37.69
2023-03-06T12:21:19.432Z,37.24
2023-03-06T12:24:20.536Z,37.12
2023-03-06T12:27:14.408Z,36.82
2023-03-06T12:30:16.514Z,34.95
2023-03-06T12:33:09.474Z,34.85
2023-03-06T12:35:55.433Z,35.29
2023-03-06T12:38:48.713Z,34.96
2023-03-06T12:41:50.678Z,34.52
2023-03-06T12:44:54.405Z,34.03
2023-03-06T12:47:28.141Z,33.94
2023-03-06T12:50:04.375Z,34.41
2023-03-06T12:52:35.426Z,34.56
2023-03-06T12:55:08.504Z,33.96
2023-03-06T12:57:37.326Z,33.77
2023-03-06T13:00:07.031Z,33.91
2023-03-06T13:03:14.608Z,33.53
2023-03-06T13:06:00.871Z,34.03
2023-03-06T13:09:00.345Z,33.80
2023-03-06T13:12:10.933Z,33.13
2023-03-06T13:14:48.769Z,32.19
2023-03-06T13:17:37.830Z,32.18
2023-03-06T13:20:15.733Z,32.04
2023-03-06T13:22:47.530Z,30.15
2023-03-06T13:25:21.054Z,30.84
2023-03-06T13:27:52.636Z,30.85
2023-03-06T13:30:39.532Z,30.94
2023-03-06T13:33:33.118Z,31.20
2023-03-06T13:36:22.410Z,31.79
2023-03-06T13:39:00.139Z,31.81
2023-03-06T13:41:31.684Z,32.58
2023-03-06T13:44:28.601Z,32.01
2023-03-06T13:47:02.204Z,31.14
2023-03-06T13:49:32.301Z,29.78
2023-03-06T13:52:19.635Z,30.38
2023-03-06T13:55:17.333Z,29.91
2023-03-06T13:58:40.636Z,30.52
2023-03-06T14:01:51.955Z,30.85
2023-03-06T14:04:58.717Z,31.28
2023-03-06T14:07:40.274Z,31.37
2023-03-06T14:10:23.624Z,31.06
2023-03-06T14:13:02.497Z,30.46
2023-03-06T14:15:49.819Z,30.08
2023-03-06T14:18:48.338Z,29.32
2023-03-06T14:21:42.659Z,29.30
2023-03-06T14:24:21.060Z,29.10
2023-03-06T14:26:55.006Z,27.74
2023-03-06T14:29:27.886Z,28.26
2023-03-06T14:32:00.249Z,27.67
2023-03-06T14:34:41.348Z,28.98
2023-03-06T14:37:25.522Z,30.38
2023-03-06T14:39:56.323Z,30.30
2023-03-06T14:42:28.986Z,30.71
2023-03-06T14:45:24.017Z,31.39
2023-03-06T14:47:53.802Z,31.23
2023-03-06T14:50:24.328Z,30.81
2023-03-06T14:52:59.624Z,30.14
2023-03-06T14:55:34.087Z,29.35
2023-03-06T14:58:16.761Z,28.18
2023-03-06T15:00:50.406Z,27.97
2023-03-06T15:03:32.803Z,27.65
2023-03-06T15:06:17.741Z,26.32
2023-03-06T15:08:54.794Z,25.52
2023-03-06T15:12:21.353Z,26.11
2023-03-06T15:15:11.934Z,27.60
2023-03-06T15:17:47.561Z,28.70
2023-03-06T15:21:11.175Z,30.00
2023-03-06T15:23:47.349Z,30.85
2023-03-06T15:26:34.881Z,30.98
2023-03-06T15:29:10.908Z,31.83
2023-03-06T15:31:43.856Z,32.23
2023-03-06T15:34:12.774Z,33.11
2023-03-06T15:36:49.627Z,33.16
2023-03-06T15:39:40.063Z,33.44
2023-03-06T15:42:34.621Z,33.10
2023-03-06T15:45:17.826Z,33.85
2023-03-06T15:47:54.411Z,34.06
2023-03-06T15:50:29.177Z,33.91
2023-03-06T15:52:58.841Z,33.55
2023-03-06T15:55:28.275Z,33.87
2023-03-06T15:58:02.352Z,34.11
2023-03-06T16:00:35.347Z,35.12
2023-03-06T16:03:05.085Z,36.11
2023-03-06T16:05:34.245Z,37.68
2023-03-06T16:08:07.013Z,37.52
2023-03-06T16:10:39.609Z,37.18
2023-03-06T16:13:17.146Z,37.23
2023-03-06T16:15:50.296Z,37.79
2023-03-06T16:18:19.805Z,40.76
2023-03-06T16:20:49.995Z,42.25
2023-03-06T16:23:19.019Z,43.45
2023-03-06T16:25:49.659Z,44.65
2023-03-06T16:28:18.617Z,45.33
2023-03-06T16:30:49.302Z,44.38
2023-03-06T16:33:37.041Z,46.57
2023-03-06T16:36:42.581Z,48.12
2023-03-06T16:39:16.075Z,49.26
2023-03-06T16:41:47.502Z,47.92
2023-03-06T16:47:03.637Z,51.11
2023-03-06T16:49:34.901Z,49.56
2023-03-06T16:52:04.879Z,50.40
2023-03-06T16:54:36.063Z,50.16
2023-03-06T16:57:05.243Z,51.48
2023-03-06T16:59:34.426Z,53.56
2023-03-06T17:02:03.470Z,54.12
2023-03-06T17:04:32.397Z,54.69
2023-03-06T17:07:01.578Z,55.16
2023-03-06T17:09:31.933Z,54.90
2023-03-06T17:12:02.959Z,55.89
2023-03-06T17:14:34.284Z,55.81
2023-03-06T17:17:03.158Z,55.31
2023-03-06T17:19:32.568Z,56.14
2023-03-06T17:22:01.653Z,54.80
2023-03-06T17:24:30.391Z,54.81
2023-03-06T17:26:59.680Z,54.38
2023-03-06T17:29:29.165Z,56.74
2023-03-06T17:31:58.367Z,57.89
2023-03-06T17:34:27.502Z,58.50
2023-03-06T17:36:56.885Z,59.34
2023-03-06T17:39:35.646Z,59.74
2023-03-06T17:42:07.552Z,60.17
2023-03-06T17:44:42.043Z,61.10
2023-03-06T17:47:12.022Z,61.59
2023-03-06T17:49:40.893Z,60.89
2023-03-06T17:52:11.526Z,60.79
2023-03-06T17:54:40.653Z,61.50
2023-03-06T17:57:09.454Z,60.95
2023-03-06T17:59:38.378Z,60.93
2023-03-06T18:02:07.346Z,59.16
2023-03-06T18:04:37.023Z,60.14
2023-03-06T18:07:06.024Z,60.18
2023-03-06T18:09:35.332Z,61.91
2023-03-06T18:12:06.157Z,61.81
2023-03-06T18:14:37.280Z,60.80
2023-03-06T18:17:10.401Z,61.54
2023-03-06T18:19:39.159Z,61.66
2023-03-06T18:22:08.083Z,61.42
2023-03-06T18:24:37.275Z,61.00
2023-03-06T18:27:06.124Z,62.56
2023-03-06T18:29:34.866Z,63.33
2023-03-06T18:32:03.854Z,63.23
2023-03-06T18:34:32.805Z,61.22
2023-03-06T18:37:01.524Z,62.92
2023-03-06T18:39:30.564Z,61.75
2023-03-06T18:41:59.463Z,62.86
2023-03-06T18:44:28.573Z,64.34
2023-03-06T18:46:57.346Z,63.91
2023-03-06T18:49:26.191Z,63.95
2023-03-06T18:51:55.065Z,63.78
2023-03-06T18:54:25.535Z,64.42
2023-03-06T18:56:54.360Z,64.26
2023-03-06T18:59:23.220Z,64.02
2023-03-06T19:01:59.124Z,65.03
2023-03-06T19:04:28.407Z,65.10
2023-03-06T19:06:57.391Z,65.28
2023-03-06T19:09:26.397Z,64.81
2023-03-06T19:11:57.612Z,64.84
2023-03-06T19:14:28.799Z,65.18
2023-03-06T19:16:57.732Z,65.83
2023-03-06T19:19:27.247Z,65.53
2023-03-06T19:22:00.618Z,65.60
2023-03-06T19:24:29.463Z,66.51
2023-03-06T19:26:58.400Z,66.70
2023-03-06T19:29:27.289Z,67.55
2023-03-06T19:31:57.406Z,67.77
2023-03-06T19:34:26.331Z,68.09
2023-03-06T19:36:55.212Z,67.73
2023-03-06T19:39:24.527Z,67.56
2023-03-06T19:41:53.474Z,67.19
2023-03-06T19:44:23.604Z,67.18
2023-03-06T19:46:52.423Z,67.54
2023-03-06T19:49:22.415Z,67.82
2023-03-06T19:51:51.506Z,68.00
2023-03-06T19:54:23.570Z,68.04
2023-03-06T19:56:54.053Z,68.27
2023-03-06T19:59:23.426Z,68.58
2023-03-06T20:01:54.293Z,68.11
2023-03-06T20:04:24.192Z,67.86
2023-03-06T20:06:54.392Z,67.23
2023-03-06T20:12:46.002Z,67.35
2023-03-06T20:15:20.860Z,67.63
2023-03-06T20:17:50.763Z,68.38
2023-03-06T20:20:22.620Z,68.04
2023-03-06T20:22:51.402Z,68.91
2023-03-06T20:25:21.138Z,68.12
2023-03-06T20:27:50.063Z,68.05
2023-03-06T20:30:19.070Z,68.72
2023-03-06T20:32:48.205Z,68.69
2023-03-06T20:35:18.106Z,68.94
2023-03-06T20:37:47.038Z,69.14
2023-03-06T20:40:16.283Z,68.81
2023-03-06T20:42:45.329Z,68.91
2023-03-06T20:45:16.046Z,68.88
2023-03-06T20:47:47.490Z,68.58
2023-03-06T20:50:17.101Z,68.42
2023-03-06T20:52:46.102Z,67.61
2023-03-06T20:55:15.036Z,67.79
2023-03-06T20:57:43.831Z,68.99
2023-03-06T21:00:13.821Z,69.18
2023-03-06T21:02:42.922Z,69.26
2023-03-06T21:05:12.088Z,69.54
2023-03-06T21:07:41.106Z,70.36
2023-03-06T21:10:10.496Z,70.58
2023-03-06T21:12:39.338Z,70.28
2023-03-06T21:15:08.915Z,70.59
2023-03-06T21:17:37.889Z,70.35
2023-03-06T21:20:08.013Z,70.13
2023-03-06T21:22:36.946Z,70.16
2023-03-06T21:25:06.101Z,70.38
2023-03-06T21:27:34.924Z,70.65
2023-03-06T21:30:04.190Z,70.48
2023-03-06T21:32:33.324Z,70.49
2023-03-06T21:35:02.461Z,71.03
2023-03-06T21:37:31.349Z,71.19
2023-03-06T21:40:01.916Z,71.06
2023-03-06T21:42:30.707Z,69.88
2023-03-06T21:45:00.134Z,69.66
2023-03-06T21:47:28.959Z,69.51
2023-03-06T21:50:01.559Z,68.84
2023-03-06T21:52:30.745Z,68.89
2023-03-06T21:54:59.596Z,69.05
2023-03-06T21:57:28.464Z,69.12
2023-03-06T21:59:57.240Z,69.24
2023-03-06T22:02:26.078Z,69.28
2023-03-06T22:04:55.499Z,69.43
2023-03-06T22:07:24.647Z,68.99
2023-03-06T22:09:54.448Z,67.59
2023-03-06T22:12:23.639Z,67.37
2023-03-06T22:14:52.682Z,66.90
2023-03-06T22:17:21.506Z,66.46
2023-03-06T22:19:50.219Z,66.22
2023-03-06T22:22:19.594Z,66.51
2023-03-06T22:24:48.702Z,68.03
2023-03-06T22:27:17.597Z,68.09
2023-03-06T22:29:46.741Z,68.92
2023-03-06T22:32:15.764Z,68.95
2023-03-06T22:34:44.755Z,69.41
2023-03-06T22:37:13.659Z,69.73
2023-03-06T22:39:42.517Z,69.83
2023-03-06T22:42:11.468Z,69.56
2023-03-06T22:44:40.347Z,69.77
2023-03-06T22:47:09.161Z,69.97
2023-03-06T22:49:38.741Z,69.42
2023-03-06T22:52:07.758Z,69.49
2023-03-06T22:54:36.664Z,70.15
2023-03-06T22:57:05.511Z,69.80
2023-03-06T22:59:34.385Z,69.61
2023-03-06T23:02:03.931Z,69.82
2023-03-06T23:04:32.696Z,69.16
2023-03-06T23:07:01.506Z,68.22
2023-03-06T23:09:31.830Z,67.62
2023-03-06T23:12:19.684Z,67.12
2023-03-06T23:15:08.389Z,66.57
2023-03-06T23:17:55.870Z,65.64
2023-03-06T23:20:44.125Z,65.10
2023-03-06T23:23:31.337Z,64.95
2023-03-06T23:26:00.754Z,64.25
2023-03-06T23:28:29.745Z,63.30
2023-03-06T23:30:58.757Z,63.66
2023-03-06T23:33:27.557Z,63.53
2023-03-06T23:35:56.395Z,63.34
2023-03-06T23:38:25.309Z,62.46
2023-03-06T23:40:54.231Z,63.04
2023-03-06T23:43:23.036Z,62.77
2023-03-06T23:45:56.278Z,62.86
2023-03-06T23:48:27.040Z,62.38
2023-03-06T23:50:56.965Z,62.22
2023-03-06T23:53:26.091Z,62.53
2023-03-06T23:55:54.928Z,62.92
2023-03-06T23:58:23.768Z,64.31
